sensor_id;sensor_type;location;lat;lon;timestamp;P1;durP1;ratioP1;P2;durP2;ratioP2
26020;SDS011;13798;48.858;9.092;2023-10-19T04:08:38;9.57;;;5.78;;
26020;SDS011;13798;48.858;9.092;2023-10-19T04:11:04;8.83;;;6.23;;
26020;SDS011;13798;48.858;9.092;2023-10-19T04:13:37;8.50;;;6.18;;
26020;SDS011;13798;48.858;9.092;2023-10-19T04:16:03;6.65;;;6.00;;
26020;SDS011;13798;48.858;9.092;2023-10-19T04:18:33;8.30;;;5.70;;
26020;SDS011;13798;48.858;9.092;2023-10-19T04:21:00;6.78;;;5.43;;
26020;SDS011;13798;48.858;9.092;2023-10-19T04:23:28;7.72;;;6.05;;
26020;SDS011;13798;48.858;9.092;2023-10-19T04:25:56;7.85;;;6.15;;
26020;SDS011;13798;48.858;9.092;2023-10-19T04:28:23;7.38;;;5.93;;
26020;SDS011;13798;48.858;9.092;2023-10-19T04:31:07;9.80;;;6.65;;
26020;SDS011;13798;48.858;9.092;2023-10-19T04:33:38;11.00;;;7.82;;
26020;SDS011;13798;48.858;9.092;2023-10-19T04:36:04;10.83;;;7.47;;
26020;SDS011;13798;48.858;9.092;2023-10-19T04:38:33;7.30;;;6.60;;
26020;SDS011;13798;48.858;9.092;2023-10-19T04:41:09;9.95;;;7.35;;
26020;SDS011;13798;48.858;9.092;2023-10-19T04:43:36;10.95;;;7.18;;
26020;SDS011;13798;48.858;9.092;2023-10-19T04:46:08;9.38;;;6.57;;
26020;SDS011;13798;48.858;9.092;2023-10-19T04:48:36;7.53;;;6.53;;
26020;SDS011;13798;48.858;9.092;2023-10-19T04:51:04;12.48;;;8.73;;
26020;SDS011;13798;48.858;9.092;2023-10-19T04:53:31;11.00;;;8.93;;
26020;SDS011;13798;48.858;9.092;2023-10-19T04:55:57;9.63;;;8.25;;
26020;SDS011;13798;48.858;9.092;2023-10-19T04:58:25;14.02;;;8.85;;
26020;SDS011;13798;48.858;9.092;2023-10-19T05:00:52;13.07;;;7.43;;
26020;SDS011;13798;48.858;9.092;2023-10-19T05:03:18;9.93;;;7.28;;
26020;SDS011;13798;48.858;9.092;2023-10-19T05:05:44;8.48;;;7.28;;
26020;SDS011;13798;48.858;9.092;2023-10-19T05:08:10;8.68;;;6.80;;
26020;SDS011;13798;48.858;9.092;2023-10-19T05:10:35;9.50;;;6.43;;
26020;SDS011;13798;48.858;9.092;2023-10-19T05:13:01;8.98;;;5.88;;
26020;SDS011;13798;48.858;9.092;2023-10-19T05:15:28;7.70;;;5.80;;
26020;SDS011;13798;48.858;9.092;2023-10-19T05:17:54;6.70;;;5.60;;
26020;SDS011;13798;48.858;9.092;2023-10-19T05:20:19;6.47;;;5.83;;
26020;SDS011;13798;48.858;9.092;2023-10-19T05:22:46;10.15;;;6.78;;
26020;SDS011;13798;48.858;9.092;2023-10-19T05:25:12;9.95;;;6.88;;
26020;SDS011;13798;48.858;9.092;2023-10-19T05:27:37;6.60;;;5.88;;
26020;SDS011;13798;48.858;9.092;2023-10-19T05:30:04;6.70;;;6.00;;
26020;SDS011;13798;48.858;9.092;2023-10-19T05:32:30;6.85;;;5.93;;
26020;SDS011;13798;48.858;9.092;2023-10-19T05:34:56;6.70;;;6.00;;
26020;SDS011;13798;48.858;9.092;2023-10-19T05:37:22;7.40;;;5.85;;
26020;SDS011;13798;48.858;9.092;2023-10-19T05:39:48;7.90;;;5.65;;
26020;SDS011;13798;48.858;9.092;2023-10-19T05:42:16;6.45;;;5.15;;
26020;SDS011;13798;48.858;9.092;2023-10-19T05:44:43;6.23;;;4.67;;
26020;SDS011;13798;48.858;9.092;2023-10-19T05:47:08;6.88;;;4.80;;
26020;SDS011;13798;48.858;9.092;2023-10-19T05:49:34;9.50;;;5.83;;
26020;SDS011;13798;48.858;9.092;2023-10-19T05:51:59;14.43;;;11.02;;
26020;SDS011;13798;48.858;9.092;2023-10-19T05:54:25;7.87;;;6.50;;
26020;SDS011;13798;48.858;9.092;2023-10-19T05:56:51;10.57;;;7.05;;
26020;SDS011;13798;48.858;9.092;2023-10-19T05:59:17;10.68;;;8.98;;
26020;SDS011;13798;48.858;9.092;2023-10-19T06:01:43;12.10;;;10.63;;
26020;SDS011;13798;48.858;9.092;2023-10-19T06:04:11;15.38;;;11.63;;
26020;SDS011;13798;48.858;9.092;2023-10-19T06:06:37;21.65;;;19.50;;
26020;SDS011;13798;48.858;9.092;2023-10-19T06:09:05;16.95;;;15.20;;
26020;SDS011;13798;48.858;9.092;2023-10-19T06:11:33;13.65;;;11.95;;
26020;SDS011;13798;48.858;9.092;2023-10-19T06:13:59;13.67;;;10.50;;
26020;SDS011;13798;48.858;9.092;2023-10-19T06:16:25;17.63;;;14.07;;
26020;SDS011;13798;48.858;9.092;2023-10-19T06:18:51;19.13;;;14.25;;
26020;SDS011;13798;48.858;9.092;2023-10-19T06:21:19;26.87;;;19.87;;
26020;SDS011;13798;48.858;9.092;2023-10-19T06:23:45;17.05;;;14.55;;
26020;SDS011;13798;48.858;9.092;2023-10-19T06:26:11;15.30;;;11.83;;
26020;SDS011;13798;48.858;9.092;2023-10-19T06:28:37;14.88;;;12.45;;
26020;SDS011;13798;48.858;9.092;2023-10-19T06:31:04;15.90;;;13.63;;
26020;SDS011;13798;48.858;9.092;2023-10-19T06:33:30;16.67;;;12.83;;
26020;SDS011;13798;48.858;9.092;2023-10-19T06:35:58;15.52;;;11.82;;
26020;SDS011;13798;48.858;9.092;2023-10-19T06:38:24;13.98;;;11.63;;
26020;SDS011;13798;48.858;9.092;2023-10-19T06:40:50;14.17;;;11.37;;
26020;SDS011;13798;48.858;9.092;2023-10-19T06:43:16;12.63;;;11.23;;
26020;SDS011;13798;48.858;9.092;2023-10-19T06:45:43;12.95;;;10.38;;
26020;SDS011;13798;48.858;9.092;2023-10-19T06:48:09;15.35;;;11.32;;
26020;SDS011;13798;48.858;9.092;2023-10-19T06:50:36;15.40;;;13.27;;
26020;SDS011;13798;48.858;9.092;2023-10-19T06:53:02;15.82;;;13.00;;
26020;SDS011;13798;48.858;9.092;2023-10-19T06:55:30;15.55;;;12.15;;
26020;SDS011;13798;48.858;9.092;2023-10-19T06:57:55;15.20;;;12.57;;
26020;SDS011;13798;48.858;9.092;2023-10-19T07:00:22;13.45;;;11.20;;
26020;SDS011;13798;48.858;9.092;2023-10-19T07:02:51;15.80;;;12.80;;
26020;SDS011;13798;48.858;9.092;2023-10-19T07:05:18;16.87;;;14.80;;
26020;SDS011;13798;48.858;9.092;2023-10-19T07:07:49;13.20;;;11.07;;
26020;SDS011;13798;48.858;9.092;2023-10-19T07:10:17;20.60;;;14.30;;
26020;SDS011;13798;48.858;9.092;2023-10-19T07:12:44;24.02;;;15.50;;
26020;SDS011;13798;48.858;9.092;2023-10-19T07:15:13;22.75;;;12.02;;
26020;SDS011;13798;48.858;9.092;2023-10-19T07:17:42;18.67;;;10.75;;
26020;SDS011;13798;48.858;9.092;2023-10-19T07:20:08;23.23;;;11.07;;
26020;SDS011;13798;48.858;9.092;2023-10-19T07:22:51;16.95;;;10.45;;
26020;SDS011;13798;48.858;9.092;2023-10-19T07:25:17;13.77;;;9.93;;
26020;SDS011;13798;48.858;9.092;2023-10-19T07:27:47;15.20;;;10.07;;
26020;SDS011;13798;48.858;9.092;2023-10-19T07:30:14;13.23;;;11.23;;
26020;SDS011;13798;48.858;9.092;2023-10-19T07:32:40;13.25;;;10.30;;
26020;SDS011;13798;48.858;9.092;2023-10-19T07:35:06;22.80;;;11.60;;
26020;SDS011;13798;48.858;9.092;2023-10-19T07:37:32;17.98;;;11.15;;
26020;SDS011;13798;48.858;9.092;2023-10-19T07:39:57;22.20;;;11.07;;
26020;SDS011;13798;48.858;9.092;2023-10-19T07:42:23;15.27;;;10.27;;
26020;SDS011;13798;48.858;9.092;2023-10-19T07:44:50;16.40;;;9.90;;
26020;SDS011;13798;48.858;9.092;2023-10-19T07:47:16;18.38;;;10.98;;
26020;SDS011;13798;48.858;9.092;2023-10-19T07:49:41;18.37;;;10.63;;
26020;SDS011;13798;48.858;9.092;2023-10-19T07:52:08;20.70;;;11.13;;
26020;SDS011;13798;48.858;9.092;2023-10-19T07:54:36;15.85;;;12.15;;
26020;SDS011;13798;48.858;9.092;2023-10-19T07:57:02;18.75;;;12.70;;
26020;SDS011;13798;48.858;9.092;2023-10-19T07:59:31;20.60;;;12.45;;
26020;SDS011;13798;48.858;9.092;2023-10-19T08:01:59;17.85;;;11.48;;
26020;SDS011;13798;48.858;9.092;2023-10-19T08:04:27;17.90;;;11.50;;
26020;SDS011;13798;48.858;9.092;2023-10-19T08:06:53;17.15;;;11.77;;
26020;SDS011;13798;48.858;9.092;2023-10-19T08:09:20;23.65;;;12.45;;
26020;SDS011;13798;48.858;9.092;2023-10-19T08:11:48;24.67;;;11.50;;
26020;SDS011;13798;48.858;9.092;2023-10-19T08:14:14;22.17;;;12.52;;
26020;SDS011;13798;48.858;9.092;2023-10-19T08:16:40;27.17;;;12.37;;
26020;SDS011;13798;48.858;9.092;2023-10-19T08:19:06;34.78;;;13.60;;
26020;SDS011;13798;48.858;9.092;2023-10-19T08:21:32;30.52;;;13.38;;
26020;SDS011;13798;48.858;9.092;2023-10-19T08:23:59;26.83;;;12.70;;
26020;SDS011;13798;48.858;9.092;2023-10-19T08:26:29;19.07;;;10.30;;
26020;SDS011;13798;48.858;9.092;2023-10-19T08:28:55;25.50;;;11.95;;
26020;SDS011;13798;48.858;9.092;2023-10-19T08:31:20;18.48;;;9.98;;
26020;SDS011;13798;48.858;9.092;2023-10-19T08:33:46;13.87;;;8.10;;
26020;SDS011;13798;48.858;9.092;2023-10-19T08:36:16;9.25;;;7.00;;
26020;SDS011;13798;48.858;9.092;2023-10-19T08:38:45;8.60;;;7.07;;
26020;SDS011;13798;48.858;9.092;2023-10-19T08:41:11;10.02;;;7.45;;
26020;SDS011;13798;48.858;9.092;2023-10-19T08:43:38;10.80;;;7.07;;
26020;SDS011;13798;48.858;9.092;2023-10-19T08:46:05;9.43;;;6.50;;
26020;SDS011;13798;48.858;9.092;2023-10-19T08:48:33;11.35;;;6.55;;
26020;SDS011;13798;48.858;9.092;2023-10-19T08:51:00;7.05;;;6.15;;
26020;SDS011;13798;48.858;9.092;2023-10-19T08:53:30;8.93;;;6.20;;
26020;SDS011;13798;48.858;9.092;2023-10-19T08:55:57;9.43;;;6.13;;
26020;SDS011;13798;48.858;9.092;2023-10-19T08:58:23;8.05;;;5.50;;
26020;SDS011;13798;48.858;9.092;2023-10-19T09:00:50;10.68;;;5.60;;
26020;SDS011;13798;48.858;9.092;2023-10-19T09:03:18;5.90;;;5.30;;
26020;SDS011;13798;48.858;9.092;2023-10-19T09:05:44;6.57;;;5.03;;
26020;SDS011;13798;48.858;9.092;2023-10-19T09:08:14;5.93;;;4.40;;
26020;SDS011;13798;48.858;9.092;2023-10-19T09:10:42;4.35;;;3.90;;
26020;SDS011;13798;48.858;9.092;2023-10-19T09:13:10;6.05;;;3.60;;
26020;SDS011;13798;48.858;9.092;2023-10-19T09:15:38;7.15;;;3.55;;
26020;SDS011;13798;48.858;9.092;2023-10-19T09:18:14;7.45;;;3.55;;
26020;SDS011;13798;48.858;9.092;2023-10-19T09:20:42;5.32;;;3.47;;
26020;SDS011;13798;48.858;9.092;2023-10-19T09:23:19;6.18;;;3.80;;
26020;SDS011;13798;48.858;9.092;2023-10-19T09:25:46;5.78;;;3.40;;
26020;SDS011;13798;48.858;9.092;2023-10-19T09:28:12;4.73;;;3.27;;
26020;SDS011;13798;48.858;9.092;2023-10-19T09:30:39;3.88;;;2.80;;
26020;SDS011;13798;48.858;9.092;2023-10-19T09:33:05;4.57;;;2.88;;
26020;SDS011;13798;48.858;9.092;2023-10-19T09:35:32;6.43;;;3.33;;
26020;SDS011;13798;48.858;9.092;2023-10-19T09:37:59;5.88;;;3.22;;
26020;SDS011;13798;48.858;9.092;2023-10-19T09:40:25;5.40;;;3.35;;
26020;SDS011;13798;48.858;9.092;2023-10-19T09:42:54;6.55;;;3.13;;
26020;SDS011;13798;48.858;9.092;2023-10-19T09:45:21;3.28;;;2.97;;
26020;SDS011;13798;48.858;9.092;2023-10-19T09:47:53;4.82;;;2.83;;
26020;SDS011;13798;48.858;9.092;2023-10-19T09:50:19;4.60;;;2.70;;
26020;SDS011;13798;48.858;9.092;2023-10-19T09:52:45;4.28;;;3.17;;
26020;SDS011;13798;48.858;9.092;2023-10-19T09:55:19;3.53;;;2.78;;
26020;SDS011;13798;48.858;9.092;2023-10-19T09:57:51;4.95;;;2.67;;
26020;SDS011;13798;48.858;9.092;2023-10-19T10:00:21;4.20;;;2.88;;
26020;SDS011;13798;48.858;9.092;2023-10-19T10:02:50;4.85;;;3.03;;
26020;SDS011;13798;48.858;9.092;2023-10-19T10:10:45;6.65;;;4.25;;
26020;SDS011;13798;48.858;9.092;2023-10-19T10:15:55;4.80;;;3.20;;
26020;SDS011;13798;48.858;9.092;2023-10-19T10:18:25;4.95;;;3.20;;
26020;SDS011;13798;48.858;9.092;2023-10-19T10:21:13;4.88;;;3.30;;
26020;SDS011;13798;48.858;9.092;2023-10-19T10:23:48;3.42;;;2.80;;
26020;SDS011;13798;48.858;9.092;2023-10-19T10:26:17;3.58;;;2.85;;
26020;SDS011;13798;48.858;9.092;2023-10-19T10:28:45;3.10;;;2.80;;
26020;SDS011;13798;48.858;9.092;2023-10-19T10:31:19;6.38;;;2.60;;
26020;SDS011;13798;48.858;9.092;2023-10-19T10:33:52;3.83;;;2.63;;
26020;SDS011;13798;48.858;9.092;2023-10-19T10:36:19;4.03;;;2.80;;
26020;SDS011;13798;48.858;9.092;2023-10-19T10:38:49;3.50;;;2.45;;
26020;SDS011;13798;48.858;9.092;2023-10-19T10:41:25;4.07;;;2.70;;
26020;SDS011;13798;48.858;9.092;2023-10-19T10:43:57;4.88;;;2.58;;
26020;SDS011;13798;48.858;9.092;2023-10-19T10:46:27;6.60;;;3.05;;
26020;SDS011;13798;48.858;9.092;2023-10-19T10:48:54;4.38;;;2.30;;
26020;SDS011;13798;48.858;9.092;2023-10-19T10:51:26;3.80;;;2.28;;
26020;SDS011;13798;48.858;9.092;2023-10-19T10:53:56;4.30;;;2.63;;
26020;SDS011;13798;48.858;9.092;2023-10-19T10:56:23;4.18;;;2.70;;
26020;SDS011;13798;48.858;9.092;2023-10-19T10:58:49;3.22;;;2.40;;
26020;SDS011;13798;48.858;9.092;2023-10-19T11:01:15;3.47;;;2.60;;
26020;SDS011;13798;48.858;9.092;2023-10-19T11:04:04;4.57;;;2.58;;
26020;SDS011;13798;48.858;9.092;2023-10-19T11:06:45;3.70;;;2.58;;
26020;SDS011;13798;48.858;9.092;2023-10-19T11:09:12;4.32;;;2.33;;
26020;SDS011;13798;48.858;9.092;2023-10-19T11:11:37;3.97;;;3.00;;
26020;SDS011;13798;48.858;9.092;2023-10-19T11:14:10;4.15;;;2.97;;
26020;SDS011;13798;48.858;9.092;2023-10-19T11:16:36;3.58;;;2.70;;
26020;SDS011;13798;48.858;9.092;2023-10-19T11:19:04;4.07;;;2.60;;
26020;SDS011;13798;48.858;9.092;2023-10-19T11:21:30;7.20;;;2.92;;
26020;SDS011;13798;48.858;9.092;2023-10-19T11:23:55;3.17;;;2.60;;
26020;SDS011;13798;48.858;9.092;2023-10-19T11:26:22;4.65;;;3.00;;
26020;SDS011;13798;48.858;9.092;2023-10-19T11:29:01;3.85;;;3.05;;
26020;SDS011;13798;48.858;9.092;2023-10-19T11:31:29;4.07;;;3.10;;
26020;SDS011;13798;48.858;9.092;2023-10-19T11:34:02;5.57;;;3.23;;
26020;SDS011;13798;48.858;9.092;2023-10-19T11:36:28;6.75;;;3.80;;
26020;SDS011;13798;48.858;9.092;2023-10-19T11:38:54;3.97;;;3.50;;
26020;SDS011;13798;48.858;9.092;2023-10-19T11:41:20;7.28;;;3.65;;
26020;SDS011;13798;48.858;9.092;2023-10-19T11:43:46;7.60;;;4.47;;
26020;SDS011;13798;48.858;9.092;2023-10-19T11:46:13;8.90;;;5.03;;
26020;SDS011;13798;48.858;9.092;2023-10-19T11:48:40;5.75;;;4.45;;
26020;SDS011;13798;48.858;9.092;2023-10-19T11:51:07;7.53;;;4.10;;
26020;SDS011;13798;48.858;9.092;2023-10-19T11:53:36;8.47;;;4.07;;
26020;SDS011;13798;48.858;9.092;2023-10-19T11:56:02;5.05;;;3.50;;
26020;SDS011;13798;48.858;9.092;2023-10-19T11:58:30;6.00;;;3.78;;
26020;SDS011;13798;48.858;9.092;2023-10-19T12:00:57;5.00;;;3.60;;
26020;SDS011;13798;48.858;9.092;2023-10-19T12:03:23;4.97;;;3.67;;
26020;SDS011;13798;48.858;9.092;2023-10-19T12:05:50;6.00;;;3.57;;
26020;SDS011;13798;48.858;9.092;2023-10-19T12:08:17;8.68;;;3.50;;
26020;SDS011;13798;48.858;9.092;2023-10-19T12:10:43;6.82;;;3.65;;
26020;SDS011;13798;48.858;9.092;2023-10-19T12:13:09;5.27;;;3.40;;
26020;SDS011;13798;48.858;9.092;2023-10-19T12:15:34;5.30;;;3.30;;
26020;SDS011;13798;48.858;9.092;2023-10-19T12:18:00;5.10;;;3.30;;
26020;SDS011;13798;48.858;9.092;2023-10-19T12:20:30;7.25;;;3.70;;
26020;SDS011;13798;48.858;9.092;2023-10-19T12:22:56;5.10;;;3.60;;
26020;SDS011;13798;48.858;9.092;2023-10-19T12:25:24;6.43;;;3.45;;
26020;SDS011;13798;48.858;9.092;2023-10-19T12:27:57;5.63;;;3.30;;
26020;SDS011;13798;48.858;9.092;2023-10-19T12:30:23;5.88;;;3.17;;
26020;SDS011;13798;48.858;9.092;2023-10-19T12:32:51;6.07;;;3.20;;
26020;SDS011;13798;48.858;9.092;2023-10-19T12:35:17;5.78;;;3.33;;
26020;SDS011;13798;48.858;9.092;2023-10-19T12:37:45;5.68;;;3.20;;
26020;SDS011;13798;48.858;9.092;2023-10-19T12:40:17;5.95;;;3.13;;
26020;SDS011;13798;48.858;9.092;2023-10-19T12:42:54;5.03;;;3.20;;
26020;SDS011;13798;48.858;9.092;2023-10-19T12:45:24;4.45;;;3.22;;
26020;SDS011;13798;48.858;9.092;2023-10-19T12:47:50;5.30;;;3.80;;
26020;SDS011;13798;48.858;9.092;2023-10-19T12:50:19;7.22;;;3.90;;
26020;SDS011;13798;48.858;9.092;2023-10-19T12:52:51;6.18;;;4.05;;
26020;SDS011;13798;48.858;9.092;2023-10-19T12:55:17;6.80;;;4.55;;
26020;SDS011;13798;48.858;9.092;2023-10-19T12:57:43;7.97;;;4.80;;
26020;SDS011;13798;48.858;9.092;2023-10-19T13:00:09;8.23;;;4.37;;
26020;SDS011;13798;48.858;9.092;2023-10-19T13:02:51;9.45;;;5.45;;
26020;SDS011;13798;48.858;9.092;2023-10-19T13:05:24;8.70;;;5.90;;
26020;SDS011;13798;48.858;9.092;2023-10-19T13:07:51;10.27;;;6.07;;
26020;SDS011;13798;48.858;9.092;2023-10-19T13:10:17;10.30;;;6.68;;
26020;SDS011;13798;48.858;9.092;2023-10-19T13:12:42;10.33;;;6.47;;
26020;SDS011;13798;48.858;9.092;2023-10-19T13:15:10;8.88;;;6.55;;
26020;SDS011;13798;48.858;9.092;2023-10-19T13:17:41;10.13;;;7.28;;
26020;SDS011;13798;48.858;9.092;2023-10-19T13:20:08;10.45;;;7.10;;
26020;SDS011;13798;48.858;9.092;2023-10-19T13:22:43;10.37;;;7.60;;
26020;SDS011;13798;48.858;9.092;2023-10-19T13:25:10;11.52;;;7.30;;
26020;SDS011;13798;48.858;9.092;2023-10-19T13:27:41;13.13;;;7.80;;
26020;SDS011;13798;48.858;9.092;2023-10-19T13:30:09;15.23;;;9.30;;
26020;SDS011;13798;48.858;9.092;2023-10-19T13:32:36;13.63;;;8.75;;
26020;SDS011;13798;48.858;9.092;2023-10-19T13:35:03;12.13;;;8.75;;
26020;SDS011;13798;48.858;9.092;2023-10-19T13:37:29;13.88;;;8.73;;
26020;SDS011;13798;48.858;9.092;2023-10-19T13:39:54;12.25;;;8.05;;
26020;SDS011;13798;48.858;9.092;2023-10-19T13:42:20;13.50;;;9.10;;
26020;SDS011;13798;48.858;9.092;2023-10-19T13:44:49;14.07;;;10.23;;
26020;SDS011;13798;48.858;9.092;2023-10-19T13:47:14;17.92;;;12.60;;
26020;SDS011;13798;48.858;9.092;2023-10-19T13:49:40;16.70;;;12.52;;
26020;SDS011;13798;48.858;9.092;2023-10-19T13:52:06;16.33;;;10.80;;
26020;SDS011;13798;48.858;9.092;2023-10-19T13:54:33;14.15;;;9.93;;
26020;SDS011;13798;48.858;9.092;2023-10-19T13:57:03;12.95;;;9.90;;
26020;SDS011;13798;48.858;9.092;2023-10-19T13:59:29;13.83;;;9.87;;
26020;SDS011;13798;48.858;9.092;2023-10-19T14:01:54;13.73;;;10.10;;
26020;SDS011;13798;48.858;9.092;2023-10-19T14:04:20;15.37;;;10.10;;
26020;SDS011;13798;48.858;9.092;2023-10-19T14:06:45;15.32;;;9.82;;
26020;SDS011;13798;48.858;9.092;2023-10-19T14:09:14;13.40;;;9.43;;
26020;SDS011;13798;48.858;9.092;2023-10-19T14:11:40;14.55;;;9.68;;
26020;SDS011;13798;48.858;9.092;2023-10-19T14:14:05;13.67;;;9.60;;
26020;SDS011;13798;48.858;9.092;2023-10-19T14:16:31;11.43;;;8.80;;
26020;SDS011;13798;48.858;9.092;2023-10-19T14:18:57;14.63;;;9.57;;
26020;SDS011;13798;48.858;9.092;2023-10-19T14:21:22;12.57;;;9.50;;
26020;SDS011;13798;48.858;9.092;2023-10-19T14:23:53;11.00;;;8.63;;
26020;SDS011;13798;48.858;9.092;2023-10-19T14:26:19;9.25;;;8.27;;
26020;SDS011;13798;48.858;9.092;2023-10-19T14:28:44;11.70;;;9.13;;
26020;SDS011;13798;48.858;9.092;2023-10-19T14:31:10;13.30;;;8.87;;
26020;SDS011;13798;48.858;9.092;2023-10-19T14:33:37;13.25;;;9.73;;
26020;SDS011;13798;48.858;9.092;2023-10-19T14:36:05;12.32;;;11.02;;
26020;SDS011;13798;48.858;9.092;2023-10-19T14:38:32;15.32;;;11.32;;
26020;SDS011;13798;48.858;9.092;2023-10-19T14:40:58;10.70;;;9.60;;
26020;SDS011;13798;48.858;9.092;2023-10-19T14:43:24;13.95;;;9.13;;
26020;SDS011;13798;48.858;9.092;2023-10-19T14:45:54;10.75;;;9.52;;
26020;SDS011;13798;48.858;9.092;2023-10-19T14:48:21;11.82;;;9.00;;
26020;SDS011;13798;48.858;9.092;2023-10-19T14:50:47;11.95;;;9.95;;
26020;SDS011;13798;48.858;9.092;2023-10-19T14:53:15;13.20;;;9.35;;
26020;SDS011;13798;48.858;9.092;2023-10-19T14:55:42;13.90;;;10.10;;
26020;SDS011;13798;48.858;9.092;2023-10-19T14:58:09;12.65;;;10.48;;
26020;SDS011;13798;48.858;9.092;2023-10-19T15:00:34;13.65;;;10.65;;
26020;SDS011;13798;48.858;9.092;2023-10-19T15:03:02;17.30;;;11.52;;
26020;SDS011;13798;48.858;9.092;2023-10-19T15:05:32;15.05;;;11.40;;
26020;SDS011;13798;48.858;9.092;2023-10-19T15:08:00;13.05;;;10.00;;
26020;SDS011;13798;48.858;9.092;2023-10-19T15:10:27;15.13;;;10.95;;
26020;SDS011;13798;48.858;9.092;2023-10-19T15:12:53;12.52;;;10.75;;
26020;SDS011;13798;48.858;9.092;2023-10-19T15:15:24;13.73;;;10.40;;
26020;SDS011;13798;48.858;9.092;2023-10-19T15:17:53;12.13;;;10.67;;
26020;SDS011;13798;48.858;9.092;2023-10-19T15:20:20;13.30;;;10.50;;
26020;SDS011;13798;48.858;9.092;2023-10-19T15:22:50;12.20;;;10.85;;
26020;SDS011;13798;48.858;9.092;2023-10-19T15:25:15;14.73;;;10.93;;
26020;SDS011;13798;48.858;9.092;2023-10-19T15:27:44;11.97;;;10.13;;
26020;SDS011;13798;48.858;9.092;2023-10-19T15:30:11;14.82;;;12.15;;
26020;SDS011;13798;48.858;9.092;2023-10-19T15:32:37;14.57;;;10.50;;
26020;SDS011;13798;48.858;9.092;2023-10-19T15:35:06;11.55;;;10.35;;
26020;SDS011;13798;48.858;9.092;2023-10-19T15:37:34;11.87;;;10.07;;
26020;SDS011;13798;48.858;9.092;2023-10-19T15:40:00;13.98;;;10.43;;
26020;SDS011;13798;48.858;9.092;2023-10-19T15:42:25;12.35;;;9.63;;
26020;SDS011;13798;48.858;9.092;2023-10-19T15:44:51;12.00;;;9.50;;
26020;SDS011;13798;48.858;9.092;2023-10-19T15:47:17;12.70;;;9.27;;
26020;SDS011;13798;48.858;9.092;2023-10-19T15:49:50;10.90;;;9.80;;
26020;SDS011;13798;48.858;9.092;2023-10-19T15:52:26;10.90;;;8.73;;
26020;SDS011;13798;48.858;9.092;2023-10-19T15:54:53;12.23;;;8.93;;
26020;SDS011;13798;48.858;9.092;2023-10-19T15:57:19;9.80;;;8.43;;
26020;SDS011;13798;48.858;9.092;2023-10-19T15:59:45;10.85;;;8.18;;
26020;SDS011;13798;48.858;9.092;2023-10-19T16:02:12;10.40;;;7.90;;
26020;SDS011;13798;48.858;9.092;2023-10-19T16:04:41;11.68;;;8.23;;
26020;SDS011;13798;48.858;9.092;2023-10-19T16:07:09;9.70;;;8.00;;
26020;SDS011;13798;48.858;9.092;2023-10-19T16:09:35;10.57;;;8.80;;
26020;SDS011;13798;48.858;9.092;2023-10-19T16:12:01;10.23;;;9.00;;
26020;SDS011;13798;48.858;9.092;2023-10-19T16:14:27;15.10;;;13.90;;
26020;SDS011;13798;48.858;9.092;2023-10-19T16:16:53;23.20;;;21.40;;
26020;SDS011;13798;48.858;9.092;2023-10-19T16:19:18;20.37;;;18.70;;
26020;SDS011;13798;48.858;9.092;2023-10-19T16:21:44;13.60;;;10.40;;
26020;SDS011;13798;48.858;9.092;2023-10-19T16:24:10;11.87;;;8.33;;
26020;SDS011;13798;48.858;9.092;2023-10-19T16:26:36;10.48;;;9.02;;
26020;SDS011;13798;48.858;9.092;2023-10-19T16:29:02;9.47;;;8.20;;
26020;SDS011;13798;48.858;9.092;2023-10-19T16:31:30;13.68;;;10.75;;
26020;SDS011;13798;48.858;9.092;2023-10-19T16:33:57;10.30;;;9.15;;
26020;SDS011;13798;48.858;9.092;2023-10-19T16:36:22;13.30;;;9.55;;
26020;SDS011;13798;48.858;9.092;2023-10-19T16:38:49;11.70;;;9.80;;
26020;SDS011;13798;48.858;9.092;2023-10-19T16:41:15;13.93;;;10.30;;
26020;SDS011;13798;48.858;9.092;2023-10-19T16:43:41;9.27;;;8.07;;
26020;SDS011;13798;48.858;9.092;2023-10-19T16:46:09;8.50;;;7.60;;
26020;SDS011;13798;48.858;9.092;2023-10-19T16:48:34;9.70;;;8.10;;
26020;SDS011;13798;48.858;9.092;2023-10-19T16:51:03;10.73;;;8.10;;
26020;SDS011;13798;48.858;9.092;2023-10-19T16:53:29;9.37;;;7.80;;
26020;SDS011;13798;48.858;9.092;2023-10-19T16:56:01;9.55;;;8.00;;
26020;SDS011;13798;48.858;9.092;2023-10-19T16:58:28;8.68;;;7.78;;
26020;SDS011;13798;48.858;9.092;2023-10-19T17:00:54;8.80;;;6.80;;
26020;SDS011;13798;48.858;9.092;2023-10-19T17:03:19;12.75;;;9.13;;
26020;SDS011;13798;48.858;9.092;2023-10-19T17:05:45;10.38;;;9.02;;
26020;SDS011;13798;48.858;9.092;2023-10-19T17:08:11;9.83;;;7.67;;
26020;SDS011;13798;48.858;9.092;2023-10-19T17:10:38;9.32;;;6.80;;
26020;SDS011;13798;48.858;9.092;2023-10-19T17:13:03;8.13;;;7.32;;
26020;SDS011;13798;48.858;9.092;2023-10-19T17:15:29;12.27;;;8.10;;
26020;SDS011;13798;48.858;9.092;2023-10-19T17:17:55;10.20;;;8.02;;
26020;SDS011;13798;48.858;9.092;2023-10-19T17:20:22;12.43;;;10.52;;
26020;SDS011;13798;48.858;9.092;2023-10-19T17:22:49;12.77;;;11.48;;
26020;SDS011;13798;48.858;9.092;2023-10-19T17:25:15;10.60;;;9.40;;
26020;SDS011;13798;48.858;9.092;2023-10-19T17:27:40;12.23;;;10.17;;
26020;SDS011;13798;48.858;9.092;2023-10-19T17:30:06;13.10;;;10.30;;
26020;SDS011;13798;48.858;9.092;2023-10-19T17:32:32;10.77;;;8.98;;
26020;SDS011;13798;48.858;9.092;2023-10-19T17:34:59;13.43;;;10.98;;
26020;SDS011;13798;48.858;9.092;2023-10-19T17:37:25;13.05;;;10.05;;
26020;SDS011;13798;48.858;9.092;2023-10-19T17:39:50;10.17;;;7.70;;
26020;SDS011;13798;48.858;9.092;2023-10-19T17:42:16;8.73;;;7.80;;
26020;SDS011;13798;48.858;9.092;2023-10-19T17:44:42;9.30;;;7.53;;
26020;SDS011;13798;48.858;9.092;2023-10-19T17:47:08;10.63;;;8.05;;
26020;SDS011;13798;48.858;9.092;2023-10-19T17:49:35;9.95;;;7.72;;
26020;SDS011;13798;48.858;9.092;2023-10-19T17:52:00;9.83;;;7.70;;
26020;SDS011;13798;48.858;9.092;2023-10-19T17:54:26;9.80;;;7.90;;
26020;SDS011;13798;48.858;9.092;2023-10-19T17:56:51;11.03;;;9.47;;
26020;SDS011;13798;48.858;9.092;2023-10-19T17:59:17;12.10;;;10.48;;
26020;SDS011;13798;48.858;9.092;2023-10-19T18:01:42;12.67;;;10.10;;
26020;SDS011;13798;48.858;9.092;2023-10-19T18:04:08;10.27;;;7.55;;
26020;SDS011;13798;48.858;9.092;2023-10-19T18:06:34;12.10;;;8.20;;
26020;SDS011;13798;48.858;9.092;2023-10-19T18:09:00;10.30;;;8.80;;
26020;SDS011;13798;48.858;9.092;2023-10-19T18:11:25;11.63;;;10.33;;
26020;SDS011;13798;48.858;9.092;2023-10-19T18:13:52;12.95;;;11.55;;
26020;SDS011;13798;48.858;9.092;2023-10-19T18:16:17;13.17;;;11.87;;
26020;SDS011;13798;48.858;9.092;2023-10-19T18:18:44;10.90;;;9.27;;
26020;SDS011;13798;48.858;9.092;2023-10-19T18:21:13;11.60;;;9.60;;
26020;SDS011;13798;48.858;9.092;2023-10-19T18:23:39;10.93;;;9.77;;
26020;SDS011;13798;48.858;9.092;2023-10-19T18:26:06;10.18;;;8.05;;
26020;SDS011;13798;48.858;9.092;2023-10-19T18:28:32;6.87;;;6.17;;
26020;SDS011;13798;48.858;9.092;2023-10-19T18:30:58;10.55;;;6.40;;
26020;SDS011;13798;48.858;9.092;2023-10-19T18:33:24;8.93;;;5.93;;
26020;SDS011;13798;48.858;9.092;2023-10-19T18:35:56;9.30;;;5.75;;
26020;SDS011;13798;48.858;9.092;2023-10-19T18:38:25;10.07;;;6.60;;
26020;SDS011;13798;48.858;9.092;2023-10-19T18:40:55;12.30;;;7.10;;
26020;SDS011;13798;48.858;9.092;2023-10-19T18:43:26;12.98;;;9.27;;
26020;SDS011;13798;48.858;9.092;2023-10-19T18:45:53;10.97;;;9.63;;
26020;SDS011;13798;48.858;9.092;2023-10-19T18:48:23;14.75;;;9.43;;
26020;SDS011;13798;48.858;9.092;2023-10-19T18:50:59;10.45;;;8.32;;
26020;SDS011;13798;48.858;9.092;2023-10-19T18:53:29;9.88;;;8.77;;